sensor_id;sensor_type;location;lat;lon;timestamp;temperature;humidity
5796;DHT22;2924;51.458;7.046;2023-11-18T00:01:58;2.40;99.90
5796;DHT22;2924;51.458;7.046;2023-11-18T00:04:24;2.30;99.90
5796;DHT22;2924;51.458;7.046;2023-11-18T00:06:50;2.30;99.90
5796;DHT22;2924;51.458;7.046;2023-11-18T00:09:17;2.30;99.90
5796;DHT22;2924;51.458;7.046;2023-11-18T00:11:43;2.40;99.90
5796;DHT22;2924;51.458;7.046;2023-11-18T00:14:09;2.30;99.90
5796;DHT22;2924;51.458;7.046;2023-11-18T00:16:36;2.30;99.90
5796;DHT22;2924;51.458;7.046;2023-11-18T00:19:02;2.30;99.90
5796;DHT22;2924;51.458;7.046;2023-11-18T00:21:30;2.30;99.90
5796;DHT22;2924;51.458;7.046;2023-11-18T00:23:56;2.30;99.90
5796;DHT22;2924;51.458;7.046;2023-11-18T00:26:21;2.30;99.90
5796;DHT22;2924;51.458;7.046;2023-11-18T00:28:47;2.30;99.90
5796;DHT22;2924;51.458;7.046;2023-11-18T00:31:14;2.30;99.90
5796;DHT22;2924;51.458;7.046;2023-11-18T00:33:39;2.30;99.90
5796;DHT22;2924;51.458;7.046;2023-11-18T00:36:06;2.30;99.90
5796;DHT22;2924;51.458;7.046;2023-11-18T00:38:32;2.30;99.90
5796;DHT22;2924;51.458;7.046;2023-11-18T00:40:57;2.30;99.90
5796;DHT22;2924;51.458;7.046;2023-11-18T00:43:23;2.20;99.90
5796;DHT22;2924;51.458;7.046;2023-11-18T00:45:48;2.20;99.90
5796;DHT22;2924;51.458;7.046;2023-11-18T00:48:14;2.30;99.90
5796;DHT22;2924;51.458;7.046;2023-11-18T00:50:40;2.30;99.90
5796;DHT22;2924;51.458;7.046;2023-11-18T00:53:06;2.20;99.90
5796;DHT22;2924;51.458;7.046;2023-11-18T00:55:31;2.10;99.90
5796;DHT22;2924;51.458;7.046;2023-11-18T00:57:57;2.10;99.90
5796;DHT22;2924;51.458;7.046;2023-11-18T01:00:23;2.20;99.90
5796;DHT22;2924;51.458;7.046;2023-11-18T01:02:52;2.10;99.90
5796;DHT22;2924;51.458;7.046;2023-11-18T01:05:19;2.20;99.90
5796;DHT22;2924;51.458;7.046;2023-11-18T01:07:44;2.20;99.90
5796;DHT22;2924;51.458;7.046;2023-11-18T01:10:11;2.20;99.90
5796;DHT22;2924;51.458;7.046;2023-11-18T01:12:37;2.20;99.90
5796;DHT22;2924;51.458;7.046;2023-11-18T01:15:03;2.30;99.90
5796;DHT22;2924;51.458;7.046;2023-11-18T01:17:29;2.30;99.90
5796;DHT22;2924;51.458;7.046;2023-11-18T01:19:56;2.30;99.90
5796;DHT22;2924;51.458;7.046;2023-11-18T01:22:22;2.20;99.90
5796;DHT22;2924;51.458;7.046;2023-11-18T01:24:48;2.20;99.90
5796;DHT22;2924;51.458;7.046;2023-11-18T01:27:13;2.30;99.90
5796;DHT22;2924;51.458;7.046;2023-11-18T01:29:39;2.40;99.90
5796;DHT22;2924;51.458;7.046;2023-11-18T01:32:06;2.40;99.90
5796;DHT22;2924;51.458;7.046;2023-11-18T01:34:35;2.30;99.90
5796;DHT22;2924;51.458;7.046;2023-11-18T01:37:03;2.40;99.90
5796;DHT22;2924;51.458;7.046;2023-11-18T01:39:33;2.40;99.90
5796;DHT22;2924;51.458;7.046;2023-11-18T01:41:58;2.50;99.90
5796;DHT22;2924;51.458;7.046;2023-11-18T01:44:25;2.50;99.90
5796;DHT22;2924;51.458;7.046;2023-11-18T01:46:56;2.50;99.90
5796;DHT22;2924;51.458;7.046;2023-11-18T01:49:23;2.40;99.90
5796;DHT22;2924;51.458;7.046;2023-11-18T01:51:50;2.40;99.90
5796;DHT22;2924;51.458;7.046;2023-11-18T01:54:19;2.50;99.90
5796;DHT22;2924;51.458;7.046;2023-11-18T01:56:48;2.40;99.90
5796;DHT22;2924;51.458;7.046;2023-11-18T01:59:14;2.40;99.90
5796;DHT22;2924;51.458;7.046;2023-11-18T02:01:53;2.40;99.90
5796;DHT22;2924;51.458;7.046;2023-11-18T02:04:20;2.30;99.90
5796;DHT22;2924;51.458;7.046;2023-11-18T02:06:48;2.30;99.90
5796;DHT22;2924;51.458;7.046;2023-11-18T02:09:18;2.40;99.90
5796;DHT22;2924;51.458;7.046;2023-11-18T02:14:39;2.30;99.90
5796;DHT22;2924;51.458;7.046;2023-11-18T02:17:05;2.20;99.90
5796;DHT22;2924;51.458;7.046;2023-11-18T02:19:35;2.20;99.90
5796;DHT22;2924;51.458;7.046;2023-11-18T02:22:01;2.20;99.90
5796;DHT22;2924;51.458;7.046;2023-11-18T02:24:31;2.20;99.90
5796;DHT22;2924;51.458;7.046;2023-11-18T02:27:02;2.20;99.90
5796;DHT22;2924;51.458;7.046;2023-11-18T02:29:33;2.30;99.90
5796;DHT22;2924;51.458;7.046;2023-11-18T02:32:11;2.30;99.90
5796;DHT22;2924;51.458;7.046;2023-11-18T02:34:40;2.40;99.90
5796;DHT22;2924;51.458;7.046;2023-11-18T02:37:09;2.60;99.90
5796;DHT22;2924;51.458;7.046;2023-11-18T02:39:43;2.70;99.90
5796;DHT22;2924;51.458;7.046;2023-11-18T02:42:10;2.60;99.90
5796;DHT22;2924;51.458;7.046;2023-11-18T02:44:38;2.60;99.90
5796;DHT22;2924;51.458;7.046;2023-11-18T02:47:04;2.60;99.90
5796;DHT22;2924;51.458;7.046;2023-11-18T02:49:31;2.70;99.90
5796;DHT22;2924;51.458;7.046;2023-11-18T02:51:56;2.70;99.90
5796;DHT22;2924;51.458;7.046;2023-11-18T02:54:23;2.70;99.90
5796;DHT22;2924;51.458;7.046;2023-11-18T02:56:49;2.70;99.90
5796;DHT22;2924;51.458;7.046;2023-11-18T02:59:16;2.60;99.90
5796;DHT22;2924;51.458;7.046;2023-11-18T03:01:41;2.60;99.90
5796;DHT22;2924;51.458;7.046;2023-11-18T03:04:07;2.60;99.90
5796;DHT22;2924;51.458;7.046;2023-11-18T03:06:34;2.70;99.90
5796;DHT22;2924;51.458;7.046;2023-11-18T03:09:01;2.70;99.90
5796;DHT22;2924;51.458;7.046;2023-11-18T03:11:26;2.70;99.90
5796;DHT22;2924;51.458;7.046;2023-11-18T03:13:55;2.70;99.90
5796;DHT22;2924;51.458;7.046;2023-11-18T03:16:22;2.70;99.90
5796;DHT22;2924;51.458;7.046;2023-11-18T03:18:47;2.80;99.90
5796;DHT22;2924;51.458;7.046;2023-11-18T03:21:14;2.80;99.90
5796;DHT22;2924;51.458;7.046;2023-11-18T03:23:40;2.80;99.90
5796;DHT22;2924;51.458;7.046;2023-11-18T03:26:09;2.80;99.90
5796;DHT22;2924;51.458;7.046;2023-11-18T03:28:38;2.80;99.90
5796;DHT22;2924;51.458;7.046;2023-11-18T03:31:05;2.70;99.90
5796;DHT22;2924;51.458;7.046;2023-11-18T03:33:31;2.80;99.90
5796;DHT22;2924;51.458;7.046;2023-11-18T03:35:57;2.70;99.90
5796;DHT22;2924;51.458;7.046;2023-11-18T03:38:22;2.80;99.90
5796;DHT22;2924;51.458;7.046;2023-11-18T03:40:49;2.80;99.90
5796;DHT22;2924;51.458;7.046;2023-11-18T03:43:15;2.70;99.90
5796;DHT22;2924;51.458;7.046;2023-11-18T03:45:41;2.80;99.90
5796;DHT22;2924;51.458;7.046;2023-11-18T03:48:07;2.90;99.90
5796;DHT22;2924;51.458;7.046;2023-11-18T03:50:36;2.80;99.90
5796;DHT22;2924;51.458;7.046;2023-11-18T03:53:02;2.80;99.90
5796;DHT22;2924;51.458;7.046;2023-11-18T03:55:29;2.80;99.90
5796;DHT22;2924;51.458;7.046;2023-11-18T03:57:55;2.80;99.90
5796;DHT22;2924;51.458;7.046;2023-11-18T04:00:22;2.90;99.90
5796;DHT22;2924;51.458;7.046;2023-11-18T04:02:57;2.80;99.90
5796;DHT22;2924;51.458;7.046;2023-11-18T04:05:23;2.90;99.90
5796;DHT22;2924;51.458;7.046;2023-11-18T04:07:49;3.00;99.90
5796;DHT22;2924;51.458;7.046;2023-11-18T04:10:15;3.00;99.90
5796;DHT22;2924;51.458;7.046;2023-11-18T04:12:43;3.10;99.90
5796;DHT22;2924;51.458;7.046;2023-11-18T04:15:12;3.10;99.90
5796;DHT22;2924;51.458;7.046;2023-11-18T04:17:37;3.20;99.90
5796;DHT22;2924;51.458;7.046;2023-11-18T04:20:03;3.20;99.90
5796;DHT22;2924;51.458;7.046;2023-11-18T04:22:34;3.30;99.90
5796;DHT22;2924;51.458;7.046;2023-11-18T04:24:59;3.30;99.90
5796;DHT22;2924;51.458;7.046;2023-11-18T04:27:25;3.30;99.90
5796;DHT22;2924;51.458;7.046;2023-11-18T04:29:50;3.20;99.90
5796;DHT22;2924;51.458;7.046;2023-11-18T04:32:16;3.20;99.90
5796;DHT22;2924;51.458;7.046;2023-11-18T04:34:41;3.20;99.90
5796;DHT22;2924;51.458;7.046;2023-11-18T04:37:08;3.20;99.90
5796;DHT22;2924;51.458;7.046;2023-11-18T04:39:33;3.20;99.90
5796;DHT22;2924;51.458;7.046;2023-11-18T04:41:59;3.20;99.90
5796;DHT22;2924;51.458;7.046;2023-11-18T04:44:26;3.30;99.90
5796;DHT22;2924;51.458;7.046;2023-11-18T04:46:52;3.30;99.90
5796;DHT22;2924;51.458;7.046;2023-11-18T04:49:17;3.20;99.90
5796;DHT22;2924;51.458;7.046;2023-11-18T04:51:44;3.30;99.90
5796;DHT22;2924;51.458;7.046;2023-11-18T04:54:10;3.30;99.90
5796;DHT22;2924;51.458;7.046;2023-11-18T04:56:36;3.40;99.90
5796;DHT22;2924;51.458;7.046;2023-11-18T04:59:03;3.50;99.90
5796;DHT22;2924;51.458;7.046;2023-11-18T05:01:30;3.50;99.90
5796;DHT22;2924;51.458;7.046;2023-11-18T05:03:56;3.40;99.90
5796;DHT22;2924;51.458;7.046;2023-11-18T05:06:21;3.40;99.90
5796;DHT22;2924;51.458;7.046;2023-11-18T05:08:47;3.30;99.90
5796;DHT22;2924;51.458;7.046;2023-11-18T05:11:13;3.20;99.90
5796;DHT22;2924;51.458;7.046;2023-11-18T05:13:39;3.20;99.90
5796;DHT22;2924;51.458;7.046;2023-11-18T05:16:07;3.20;99.90
5796;DHT22;2924;51.458;7.046;2023-11-18T05:18:33;3.30;99.90
5796;DHT22;2924;51.458;7.046;2023-11-18T05:21:01;3.30;99.90
5796;DHT22;2924;51.458;7.046;2023-11-18T05:23:28;3.30;99.90
5796;DHT22;2924;51.458;7.046;2023-11-18T05:25:57;3.30;99.90
5796;DHT22;2924;51.458;7.046;2023-11-18T05:28:24;3.20;99.90
5796;DHT22;2924;51.458;7.046;2023-11-18T05:30:50;3.20;99.90
5796;DHT22;2924;51.458;7.046;2023-11-18T05:33:16;3.20;99.90
5796;DHT22;2924;51.458;7.046;2023-11-18T05:35:44;3.20;99.90
5796;DHT22;2924;51.458;7.046;2023-11-18T05:38:18;3.30;99.90
5796;DHT22;2924;51.458;7.046;2023-11-18T05:40:47;3.30;99.90
5796;DHT22;2924;51.458;7.046;2023-11-18T05:43:30;3.30;99.90
5796;DHT22;2924;51.458;7.046;2023-11-18T05:46:04;3.30;99.90
5796;DHT22;2924;51.458;7.046;2023-11-18T05:48:51;3.40;99.90
5796;DHT22;2924;51.458;7.046;2023-11-18T05:51:22;3.50;99.90
5796;DHT22;2924;51.458;7.046;2023-11-18T05:53:49;3.50;99.90
5796;DHT22;2924;51.458;7.046;2023-11-18T05:56:16;3.60;99.90
5796;DHT22;2924;51.458;7.046;2023-11-18T05:58:42;3.60;99.90
5796;DHT22;2924;51.458;7.046;2023-11-18T06:01:08;3.60;99.90
5796;DHT22;2924;51.458;7.046;2023-11-18T06:03:35;3.70;99.90
5796;DHT22;2924;51.458;7.046;2023-11-18T06:06:10;3.70;99.90
5796;DHT22;2924;51.458;7.046;2023-11-18T06:08:40;3.60;99.90
5796;DHT22;2924;51.458;7.046;2023-11-18T06:11:16;3.60;99.90
5796;DHT22;2924;51.458;7.046;2023-11-18T06:13:43;3.60;99.90
5796;DHT22;2924;51.458;7.046;2023-11-18T06:16:22;3.60;99.90
5796;DHT22;2924;51.458;7.046;2023-11-18T06:18:56;3.70;99.90
5796;DHT22;2924;51.458;7.046;2023-11-18T06:21:25;3.60;99.90
5796;DHT22;2924;51.458;7.046;2023-11-18T06:23:54;3.80;99.90
5796;DHT22;2924;51.458;7.046;2023-11-18T06:26:23;3.80;99.90
5796;DHT22;2924;51.458;7.046;2023-11-18T06:28:53;3.80;99.90
5796;DHT22;2924;51.458;7.046;2023-11-18T06:31:19;3.80;99.90
5796;DHT22;2924;51.458;7.046;2023-11-18T06:33:47;3.80;99.90
5796;DHT22;2924;51.458;7.046;2023-11-18T06:38:53;3.80;99.90
5796;DHT22;2924;51.458;7.046;2023-11-18T06:41:23;3.80;99.90
5796;DHT22;2924;51.458;7.046;2023-11-18T06:43:49;3.90;99.90
5796;DHT22;2924;51.458;7.046;2023-11-18T06:48:55;3.90;99.90
5796;DHT22;2924;51.458;7.046;2023-11-18T06:51:25;4.00;99.90
5796;DHT22;2924;51.458;7.046;2023-11-18T06:53:51;4.00;99.90
5796;DHT22;2924;51.458;7.046;2023-11-18T06:56:20;4.00;99.90
5796;DHT22;2924;51.458;7.046;2023-11-18T06:58:46;4.00;99.90
5796;DHT22;2924;51.458;7.046;2023-11-18T07:01:14;3.90;99.90
5796;DHT22;2924;51.458;7.046;2023-11-18T07:03:43;3.90;99.90
5796;DHT22;2924;51.458;7.046;2023-11-18T07:06:10;3.90;99.90
5796;DHT22;2924;51.458;7.046;2023-11-18T07:08:36;3.90;99.90
5796;DHT22;2924;51.458;7.046;2023-11-18T07:11:02;3.90;99.90
5796;DHT22;2924;51.458;7.046;2023-11-18T07:13:29;3.90;99.90
5796;DHT22;2924;51.458;7.046;2023-11-18T07:15:54;3.90;99.90
5796;DHT22;2924;51.458;7.046;2023-11-18T07:18:22;4.00;99.90
5796;DHT22;2924;51.458;7.046;2023-11-18T07:20:51;4.10;99.90
5796;DHT22;2924;51.458;7.046;2023-11-18T07:23:18;4.10;99.90
5796;DHT22;2924;51.458;7.046;2023-11-18T07:25:44;4.10;99.90
5796;DHT22;2924;51.458;7.046;2023-11-18T07:28:13;4.10;99.90
5796;DHT22;2924;51.458;7.046;2023-11-18T07:30:42;4.20;99.90
5796;DHT22;2924;51.458;7.046;2023-11-18T07:33:13;4.20;99.90
5796;DHT22;2924;51.458;7.046;2023-11-18T07:35:39;4.30;99.90
5796;DHT22;2924;51.458;7.046;2023-11-18T07:38:05;4.20;99.90
5796;DHT22;2924;51.458;7.046;2023-11-18T07:40:33;4.30;99.90
5796;DHT22;2924;51.458;7.046;2023-11-18T07:43:02;4.30;99.90
5796;DHT22;2924;51.458;7.046;2023-11-18T07:45:28;4.40;99.90
5796;DHT22;2924;51.458;7.046;2023-11-18T07:47:54;4.40;99.90
5796;DHT22;2924;51.458;7.046;2023-11-18T07:50:20;4.50;99.90
5796;DHT22;2924;51.458;7.046;2023-11-18T07:52:50;4.40;99.90
5796;DHT22;2924;51.458;7.046;2023-11-18T07:55:16;4.50;99.90
5796;DHT22;2924;51.458;7.046;2023-11-18T07:57:41;4.50;99.90
5796;DHT22;2924;51.458;7.046;2023-11-18T08:00:08;4.50;99.90
5796;DHT22;2924;51.458;7.046;2023-11-18T08:02:38;4.60;99.90
5796;DHT22;2924;51.458;7.046;2023-11-18T08:05:04;4.60;99.90
5796;DHT22;2924;51.458;7.046;2023-11-18T08:07:36;4.60;99.90
5796;DHT22;2924;51.458;7.046;2023-11-18T08:10:02;4.60;99.90
5796;DHT22;2924;51.458;7.046;2023-11-18T08:12:32;4.70;99.90
5796;DHT22;2924;51.458;7.046;2023-11-18T08:14:59;4.70;99.90
5796;DHT22;2924;51.458;7.046;2023-11-18T08:17:25;4.80;99.90
5796;DHT22;2924;51.458;7.046;2023-11-18T08:19:51;4.80;99.90
5796;DHT22;2924;51.458;7.046;2023-11-18T08:22:18;4.80;99.90
5796;DHT22;2924;51.458;7.046;2023-11-18T08:24:45;4.90;99.90
5796;DHT22;2924;51.458;7.046;2023-11-18T08:27:10;5.00;99.90
5796;DHT22;2924;51.458;7.046;2023-11-18T08:29:36;5.00;99.90
5796;DHT22;2924;51.458;7.046;2023-11-18T08:32:04;5.10;99.90
5796;DHT22;2924;51.458;7.046;2023-11-18T08:34:30;5.10;99.90
5796;DHT22;2924;51.458;7.046;2023-11-18T08:36:58;5.20;99.90
5796;DHT22;2924;51.458;7.046;2023-11-18T08:39:25;5.20;99.90
5796;DHT22;2924;51.458;7.046;2023-11-18T08:41:51;5.20;99.90
5796;DHT22;2924;51.458;7.046;2023-11-18T08:44:17;5.20;99.90
5796;DHT22;2924;51.458;7.046;2023-11-18T08:46:43;5.20;99.90
5796;DHT22;2924;51.458;7.046;2023-11-18T08:49:09;5.20;99.90
5796;DHT22;2924;51.458;7.046;2023-11-18T08:51:36;5.30;99.90
5796;DHT22;2924;51.458;7.046;2023-11-18T08:54:02;5.30;99.90
5796;DHT22;2924;51.458;7.046;2023-11-18T08:56:56;5.30;99.90
5796;DHT22;2924;51.458;7.046;2023-11-18T08:59:23;5.30;99.90
5796;DHT22;2924;51.458;7.046;2023-11-18T09:01:59;5.40;99.90
5796;DHT22;2924;51.458;7.046;2023-11-18T09:04:25;5.40;99.90
5796;DHT22;2924;51.458;7.046;2023-11-18T09:06:51;5.40;99.90
5796;DHT22;2924;51.458;7.046;2023-11-18T09:09:20;5.40;99.90
5796;DHT22;2924;51.458;7.046;2023-11-18T09:11:53;5.50;99.90
5796;DHT22;2924;51.458;7.046;2023-11-18T09:14:20;5.50;99.90
5796;DHT22;2924;51.458;7.046;2023-11-18T09:16:45;5.50;99.90
5796;DHT22;2924;51.458;7.046;2023-11-18T09:19:11;5.50;99.90
5796;DHT22;2924;51.458;7.046;2023-11-18T09:21:37;5.50;99.90
5796;DHT22;2924;51.458;7.046;2023-11-18T09:24:02;5.60;99.90
5796;DHT22;2924;51.458;7.046;2023-11-18T09:26:30;5.60;99.90
5796;DHT22;2924;51.458;7.046;2023-11-18T09:28:56;5.70;99.90
5796;DHT22;2924;51.458;7.046;2023-11-18T09:31:22;5.70;99.90
5796;DHT22;2924;51.458;7.046;2023-11-18T09:33:48;5.70;99.90
5796;DHT22;2924;51.458;7.046;2023-11-18T09:36:22;5.70;99.90
5796;DHT22;2924;51.458;7.046;2023-11-18T09:38:48;5.70;99.90
5796;DHT22;2924;51.458;7.046;2023-11-18T09:41:15;5.70;99.90
5796;DHT22;2924;51.458;7.046;2023-11-18T09:43:45;5.70;99.90
5796;DHT22;2924;51.458;7.046;2023-11-18T09:46:14;5.80;99.90
5796;DHT22;2924;51.458;7.046;2023-11-18T09:48:41;5.80;99.90
5796;DHT22;2924;51.458;7.046;2023-11-18T09:51:08;5.80;99.90
5796;DHT22;2924;51.458;7.046;2023-11-18T09:53:37;5.90;99.90
5796;DHT22;2924;51.458;7.046;2023-11-18T09:56:07;6.00;99.90
5796;DHT22;2924;51.458;7.046;2023-11-18T09:58:48;6.00;99.90
5796;DHT22;2924;51.458;7.046;2023-11-18T10:01:18;6.10;99.90
5796;DHT22;2924;51.458;7.046;2023-11-18T10:03:46;6.20;99.90
5796;DHT22;2924;51.458;7.046;2023-11-18T10:06:14;6.20;99.90
5796;DHT22;2924;51.458;7.046;2023-11-18T10:08:41;6.20;99.90
5796;DHT22;2924;51.458;7.046;2023-11-18T10:11:12;6.30;99.90
5796;DHT22;2924;51.458;7.046;2023-11-18T10:13:39;6.30;99.90
5796;DHT22;2924;51.458;7.046;2023-11-18T10:16:09;6.40;99.90
5796;DHT22;2924;51.458;7.046;2023-11-18T10:18:35;6.40;99.90
5796;DHT22;2924;51.458;7.046;2023-11-18T10:21:02;6.40;99.90
5796;DHT22;2924;51.458;7.046;2023-11-18T10:23:29;6.50;99.90
5796;DHT22;2924;51.458;7.046;2023-11-18T10:25:59;6.50;99.90
5796;DHT22;2924;51.458;7.046;2023-11-18T10:28:36;6.50;99.90
5796;DHT22;2924;51.458;7.046;2023-11-18T10:31:07;6.60;99.90
5796;DHT22;2924;51.458;7.046;2023-11-18T10:33:36;6.60;99.90
5796;DHT22;2924;51.458;7.046;2023-11-18T10:36:03;6.60;99.90
5796;DHT22;2924;51.458;7.046;2023-11-18T10:38:30;6.70;99.90
5796;DHT22;2924;51.458;7.046;2023-11-18T10:40:58;6.60;99.90
5796;DHT22;2924;51.458;7.046;2023-11-18T10:43:27;6.60;99.90
5796;DHT22;2924;51.458;7.046;2023-11-18T10:46:12;6.60;99.90
5796;DHT22;2924;51.458;7.046;2023-11-18T10:48:45;6.60;99.90
5796;DHT22;2924;51.458;7.046;2023-11-18T10:51:17;6.70;99.90
5796;DHT22;2924;51.458;7.046;2023-11-18T10:53:48;6.70;99.90
5796;DHT22;2924;51.458;7.046;2023-11-18T10:56:29;6.70;99.90
5796;DHT22;2924;51.458;7.046;2023-11-18T10:59:03;6.80;99.90
5796;DHT22;2924;51.458;7.046;2023-11-18T11:01:35;6.80;99.90
5796;DHT22;2924;51.458;7.046;2023-11-18T11:04:11;6.90;99.90
5796;DHT22;2924;51.458;7.046;2023-11-18T11:06:47;6.90;99.90
5796;DHT22;2924;51.458;7.046;2023-11-18T11:09:20;7.00;99.90
5796;DHT22;2924;51.458;7.046;2023-11-18T11:11:56;7.00;99.90
5796;DHT22;2924;51.458;7.046;2023-11-18T11:14:37;7.00;99.90
5796;DHT22;2924;51.458;7.046;2023-11-18T11:17:13;7.00;99.90
5796;DHT22;2924;51.458;7.046;2023-11-18T11:19:57;6.90;99.90
5796;DHT22;2924;51.458;7.046;2023-11-18T11:22:46;7.00;99.90
5796;DHT22;2924;51.458;7.046;2023-11-18T11:25:29;7.00;99.90
5796;DHT22;2924;51.458;7.046;2023-11-18T11:30:46;7.10;99.90
5796;DHT22;2924;51.458;7.046;2023-11-18T11:33:23;7.00;99.90
5796;DHT22;2924;51.458;7.046;2023-11-18T11:35:55;7.00;99.90
5796;DHT22;2924;51.458;7.046;2023-11-18T11:38:23;7.00;99.90
5796;DHT22;2924;51.458;7.046;2023-11-18T11:40:50;7.00;99.90
5796;DHT22;2924;51.458;7.046;2023-11-18T11:43:18;7.00;99.90
5796;DHT22;2924;51.458;7.046;2023-11-18T11:45:50;7.00;99.90
5796;DHT22;2924;51.458;7.046;2023-11-18T11:48:17;7.00;99.90
5796;DHT22;2924;51.458;7.046;2023-11-18T11:51:05;7.00;99.90
5796;DHT22;2924;51.458;7.046;2023-11-18T11:53:45;6.90;99.90
5796;DHT22;2924;51.458;7.046;2023-11-18T11:56:12;6.90;99.90
5796;DHT22;2924;51.458;7.046;2023-11-18T11:58:46;6.90;99.90
5796;DHT22;2924;51.458;7.046;2023-11-18T12:01:32;7.00;99.90
5796;DHT22;2924;51.458;7.046;2023-11-18T12:04:03;7.00;99.90
5796;DHT22;2924;51.458;7.046;2023-11-18T12:06:32;7.00;99.90
5796;DHT22;2924;51.458;7.046;2023-11-18T12:09:00;7.00;99.90
5796;DHT22;2924;51.458;7.046;2023-11-18T12:11:37;7.00;99.90
5796;DHT22;2924;51.458;7.046;2023-11-18T12:14:08;7.00;99.90
5796;DHT22;2924;51.458;7.046;2023-11-18T12:16:59;7.00;99.90
5796;DHT22;2924;51.458;7.046;2023-11-18T12:19:40;7.00;99.90
5796;DHT22;2924;51.458;7.046;2023-11-18T12:22:13;7.00;99.90
5796;DHT22;2924;51.458;7.046;2023-11-18T12:27:45;7.00;99.90
5796;DHT22;2924;51.458;7.046;2023-11-18T12:33:00;6.90;99.90
5796;DHT22;2924;51.458;7.046;2023-11-18T12:35:30;6.80;99.90
5796;DHT22;2924;51.458;7.046;2023-11-18T12:38:26;6.90;99.90
5796;DHT22;2924;51.458;7.046;2023-11-18T12:41:01;6.80;99.90
5796;DHT22;2924;51.458;7.046;2023-11-18T12:44:15;6.80;99.90
5796;DHT22;2924;51.458;7.046;2023-11-18T12:46:54;6.80;99.90
5796;DHT22;2924;51.458;7.046;2023-11-18T12:49:23;6.80;99.90
5796;DHT22;2924;51.458;7.046;2023-11-18T12:51:53;6.70;99.90
5796;DHT22;2924;51.458;7.046;2023-11-18T12:54:21;6.70;99.90
5796;DHT22;2924;51.458;7.046;2023-11-18T12:56:50;6.70;99.90
5796;DHT22;2924;51.458;7.046;2023-11-18T12:59:19;6.70;99.90
5796;DHT22;2924;51.458;7.046;2023-11-18T13:01:49;6.70;99.90
5796;DHT22;2924;51.458;7.046;2023-11-18T13:04:23;6.60;99.90
5796;DHT22;2924;51.458;7.046;2023-11-18T13:06:50;6.70;99.90
5796;DHT22;2924;51.458;7.046;2023-11-18T13:09:17;6.60;99.90
5796;DHT22;2924;51.458;7.046;2023-11-18T13:11:56;6.70;99.90
5796;DHT22;2924;51.458;7.046;2023-11-18T13:14:28;6.70;99.90
5796;DHT22;2924;51.458;7.046;2023-11-18T13:17:02;6.60;99.90
5796;DHT22;2924;51.458;7.046;2023-11-18T13:19:31;6.60;99.90
5796;DHT22;2924;51.458;7.046;2023-11-18T13:22:07;6.70;99.90
5796;DHT22;2924;51.458;7.046;2023-11-18T13:24:40;6.60;99.90
5796;DHT22;2924;51.458;7.046;2023-11-18T13:27:08;6.60;99.90
5796;DHT22;2924;51.458;7.046;2023-11-18T13:29:38;6.60;99.90
5796;DHT22;2924;51.458;7.046;2023-11-18T13:32:09;6.60;99.90
5796;DHT22;2924;51.458;7.046;2023-11-18T13:34:36;6.70;99.90
5796;DHT22;2924;51.458;7.046;2023-11-18T13:37:06;6.70;99.90
5796;DHT22;2924;51.458;7.046;2023-11-18T13:39:35;6.60;99.90
5796;DHT22;2924;51.458;7.046;2023-11-18T13:42:22;6.60;99.90
5796;DHT22;2924;51.458;7.046;2023-11-18T13:44:49;6.60;99.90
5796;DHT22;2924;51.458;7.046;2023-11-18T13:47:19;6.70;99.90
5796;DHT22;2924;51.458;7.046;2023-11-18T13:49:45;6.60;99.90
5796;DHT22;2924;51.458;7.046;2023-11-18T13:52:13;6.70;99.90
5796;DHT22;2924;51.458;7.046;2023-11-18T13:54:42;6.70;99.90
5796;DHT22;2924;51.458;7.046;2023-11-18T13:57:11;6.70;99.90
5796;DHT22;2924;51.458;7.046;2023-11-18T13:59:40;6.70;99.90
5796;DHT22;2924;51.458;7.046;2023-11-18T14:02:09;6.70;99.90
5796;DHT22;2924;51.458;7.046;2023-11-18T14:04:35;6.70;99.90
5796;DHT22;2924;51.458;7.046;2023-11-18T14:07:03;6.70;99.90
5796;DHT22;2924;51.458;7.046;2023-11-18T14:09:33;6.80;99.90
5796;DHT22;2924;51.458;7.046;2023-11-18T14:12:06;6.80;99.90
5796;DHT22;2924;51.458;7.046;2023-11-18T14:14:32;6.80;99.90
5796;DHT22;2924;51.458;7.046;2023-11-18T14:16:58;6.80;99.90
5796;DHT22;2924;51.458;7.046;2023-11-18T14:19:30;6.80;99.90
5796;DHT22;2924;51.458;7.046;2023-11-18T14:21:56;6.80;99.90
5796;DHT22;2924;51.458;7.046;2023-11-18T14:24:23;6.80;99.90
5796;DHT22;2924;51.458;7.046;2023-11-18T14:26:49;6.80;99.90
5796;DHT22;2924;51.458;7.046;2023-11-18T14:29:16;6.80;99.90
5796;DHT22;2924;51.458;7.046;2023-11-18T14:31:41;6.80;99.90
5796;DHT22;2924;51.458;7.046;2023-11-18T14:34:07;6.80;99.90
5796;DHT22;2924;51.458;7.046;2023-11-18T14:36:36;6.70;99.90
5796;DHT22;2924;51.458;7.046;2023-11-18T14:39:02;6.70;99.90
5796;DHT22;2924;51.458;7.046;2023-11-18T14:41:29;6.70;99.90
5796;DHT22;2924;51.458;7.046;2023-11-18T14:43:56;6.70;99.90
5796;DHT22;2924;51.458;7.046;2023-11-18T14:46:23;6.70;99.90
5796;DHT22;2924;51.458;7.046;2023-11-18T14:48:49;6.70;99.90
5796;DHT22;2924;51.458;7.046;2023-11-18T14:51:15;6.70;99.90
5796;DHT22;2924;51.458;7.046;2023-11-18T14:53:41;6.80;99.90
5796;DHT22;2924;51.458;7.046;2023-11-18T14:56:08;6.70;99.90
5796;DHT22;2924;51.458;7.046;2023-11-18T14:58:34;6.70;99.90
5796;DHT22;2924;51.458;7.046;2023-11-18T15:01:01;6.70;99.90
5796;DHT22;2924;51.458;7.046;2023-11-18T15:03:27;6.70;99.90
5796;DHT22;2924;51.458;7.046;2023-11-18T15:05:53;6.70;99.90
5796;DHT22;2924;51.458;7.046;2023-11-18T15:08:19;6.60;99.90
5796;DHT22;2924;51.458;7.046;2023-11-18T15:10:45;6.60;99.90
5796;DHT22;2924;51.458;7.046;2023-11-18T15:13:11;6.50;99.90
5796;DHT22;2924;51.458;7.046;2023-11-18T15:15:44;6.50;99.90
5796;DHT22;2924;51.458;7.046;2023-11-18T15:18:13;6.50;99.90
5796;DHT22;2924;51.458;7.046;2023-11-18T15:20:42;6.50;99.90
5796;DHT22;2924;51.458;7.046;2023-11-18T15:23:08;6.50;99.90
5796;DHT22;2924;51.458;7.046;2023-11-18T15:25:34;6.60;99.90
5796;DHT22;2924;51.458;7.046;2023-11-18T15:28:00;6.60;99.90
5796;DHT22;2924;51.458;7.046;2023-11-18T15:30:26;6.50;99.90
5796;DHT22;2924;51.458;7.046;2023-11-18T15:32:52;6.50;99.90
5796;DHT22;2924;51.458;7.046;2023-11-18T15:35:18;6.50;99.90
5796;DHT22;2924;51.458;7.046;2023-11-18T15:37:46;6.50;99.90
5796;DHT22;2924;51.458;7.046;2023-11-18T15:40:13;6.50;99.90
5796;DHT22;2924;51.458;7.046;2023-11-18T15:42:43;6.60;99.90
5796;DHT22;2924;51.458;7.046;2023-11-18T15:45:17;6.60;99.90
5796;DHT22;2924;51.458;7.046;2023-11-18T15:47:43;6.60;99.90
5796;DHT22;2924;51.458;7.046;2023-11-18T15:50:10;6.60;99.90
5796;DHT22;2924;51.458;7.046;2023-11-18T15:52:48;6.60;99.90
5796;DHT22;2924;51.458;7.046;2023-11-18T15:55:14;6.60;99.90
5796;DHT22;2924;51.458;7.046;2023-11-18T15:57:41;6.60;99.90
5796;DHT22;2924;51.458;7.046;2023-11-18T16:00:08;6.60;99.90
5796;DHT22;2924;51.458;7.046;2023-11-18T16:02:47;6.60;99.90
5796;DHT22;2924;51.458;7.046;2023-11-18T16:05:18;6.60;99.90
5796;DHT22;2924;51.458;7.046;2023-11-18T16:07:44;6.60;99.90
5796;DHT22;2924;51.458;7.046;2023-11-18T16:10:12;6.60;99.90
5796;DHT22;2924;51.458;7.046;2023-11-18T16:12:44;6.60;99.90
5796;DHT22;2924;51.458;7.046;2023-11-18T16:15:10;6.60;99.90
5796;DHT22;2924;51.458;7.046;2023-11-18T16:17:36;6.70;99.90
5796;DHT22;2924;51.458;7.046;2023-11-18T16:20:01;6.70;99.90
5796;DHT22;2924;51.458;7.046;2023-11-18T16:22:32;6.70;99.90
5796;DHT22;2924;51.458;7.046;2023-11-18T16:24:58;6.70;99.90
5796;DHT22;2924;51.458;7.046;2023-11-18T16:27:24;6.70;99.90
5796;DHT22;2924;51.458;7.046;2023-11-18T16:29:50;6.70;99.90
5796;DHT22;2924;51.458;7.046;2023-11-18T16:32:15;6.70;99.90
5796;DHT22;2924;51.458;7.046;2023-11-18T16:34:41;6.70;99.90
5796;DHT22;2924;51.458;7.046;2023-11-18T16:37:06;6.70;99.90
5796;DHT22;2924;51.458;7.046;2023-11-18T16:39:32;6.80;99.90
5796;DHT22;2924;51.458;7.046;2023-11-18T16:41:58;6.70;99.90
5796;DHT22;2924;51.458;7.046;2023-11-18T16:44:24;6.90;99.90